Time;durP1;ratioP1;P1;durP2;ratioP2;P2;SDS_P1;SDS_P2;PMS_P1;PMS_P2;Temp;Humidity;BMP_temperature;BMP_pressure;BME280_temperature;BME280_humidity;BME280_pressure;Samples;Min_cycle;Max_cycle;Signal;HPM_P1;HPM_P2
2023/08/01 00:02:23;;;;;;;0.82;0.70;;;17.60;99.90;;;;;;5033425;28;20069;-65
2023/08/01 00:04:48;;;;;;;3.20;0.70;;;17.60;99.90;;;;;;5033288;28;20567;-64
2023/08/01 00:07:14;;;;;;;2.17;0.70;;;17.60;99.90;;;;;;5036301;28;20037;-64
2023/08/01 00:09:39;;;;;;;2.33;0.80;;;17.70;99.90;;;;;;5039118;28;20037;-64
2023/08/01 00:12:05;;;;;;;0.80;0.63;;;17.60;99.90;;;;;;5033344;28;20029;-65
2023/08/01 00:14:31;;;;;;;1.88;0.70;;;17.60;99.90;;;;;;5033713;28;20041;-65
2023/08/01 00:16:56;;;;;;;2.40;0.80;;;17.60;99.90;;;;;;5037542;28;20056;-65
2023/08/01 00:19:22;;;;;;;4.38;0.80;;;17.60;99.90;;;;;;5039747;28;20022;-65
2023/08/01 00:21:47;;;;;;;2.35;0.95;;;17.60;99.90;;;;;;5035858;28;20025;-64
2023/08/01 00:24:13;;;;;;;4.60;0.80;;;17.60;99.90;;;;;;5034156;28;20021;-65
2023/08/01 00:26:38;;;;;;;2.35;0.90;;;17.60;99.90;;;;;;5032514;28;20082;-65
2023/08/01 00:29:04;;;;;;;5.03;1.13;;;17.60;99.90;;;;;;5033511;28;20025;-64
2023/08/01 00:31:29;;;;;;;4.25;1.10;;;17.60;99.90;;;;;;5031758;28;20033;-66
2023/08/01 00:33:55;;;;;;;3.70;1.35;;;17.60;99.90;;;;;;5033227;28;20057;-65
2023/08/01 00:36:21;;;;;;;3.00;1.35;;;17.60;99.90;;;;;;5034357;28;20029;-64
2023/08/01 00:38:47;;;;;;;2.97;1.20;;;17.60;99.90;;;;;;5043499;28;20025;-65
2023/08/01 00:41:12;;;;;;;4.80;1.48;;;17.60;99.90;;;;;;5033813;28;20433;-66
2023/08/01 00:43:38;;;;;;;4.45;1.30;;;17.60;99.90;;;;;;5039674;28;20087;-65
2023/08/01 00:46:05;;;;;;;1.67;0.77;;;17.60;99.90;;;;;;5031081;28;20501;-65
2023/08/01 00:48:31;;;;;;;2.97;0.90;;;17.70;99.90;;;;;;5033405;28;20064;-65
2023/08/01 00:51:03;;;;;;;1.45;0.70;;;17.70;99.90;;;;;;5033111;28;20061;-65
2023/08/01 00:53:30;;;;;;;4.40;0.70;;;17.70;99.90;;;;;;5033599;28;20087;-65
2023/08/01 00:55:57;;;;;;;3.60;0.90;;;17.70;99.90;;;;;;5036992;28;20082;-65
2023/08/01 00:58:23;;;;;;;2.40;0.93;;;17.60;99.90;;;;;;5034560;28;20013;-65
2023/08/01 01:00:48;;;;;;;1.63;0.60;;;17.70;99.90;;;;;;5038983;28;20160;-65
2023/08/01 01:03:16;;;;;;;1.38;0.80;;;17.70;99.90;;;;;;5040188;28;20553;-65
2023/08/01 01:05:49;;;;;;;5.85;0.63;;;17.70;99.90;;;;;;5040635;28;20018;-65
2023/08/01 01:08:15;;;;;;;2.85;0.50;;;17.70;99.90;;;;;;5043388;28;20037;-65
2023/08/01 01:10:40;;;;;;;2.38;0.45;;;17.70;99.90;;;;;;5032315;28;20033;-65
2023/08/01 01:13:06;;;;;;;1.42;0.60;;;17.80;99.90;;;;;;5034685;28;20032;-65
2023/08/01 01:15:32;;;;;;;0.85;0.40;;;17.70;99.90;;;;;;5036273;28;20107;-63
2023/08/01 01:17:58;;;;;;;1.35;0.43;;;17.80;99.90;;;;;;5044288;28;20064;-65
2023/08/01 01:20:24;;;;;;;5.22;0.45;;;17.80;99.90;;;;;;5043479;28;20044;-65
2023/08/01 01:22:52;;;;;;;4.30;0.68;;;17.80;99.90;;;;;;5033972;28;20033;-65
2023/08/01 01:25:20;;;;;;;4.10;0.50;;;17.80;99.90;;;;;;5040177;28;20111;-65
2023/08/01 01:27:46;;;;;;;3.22;0.55;;;17.80;99.90;;;;;;5041499;28;20070;-65
2023/08/01 01:30:12;;;;;;;6.47;0.90;;;17.70;99.90;;;;;;5044034;28;20037;-65
2023/08/01 01:32:39;;;;;;;3.15;0.60;;;17.80;99.90;;;;;;5036672;28;20030;-65
2023/08/01 01:35:05;;;;;;;3.33;0.77;;;17.80;99.90;;;;;;5034796;28;20017;-64
2023/08/01 01:37:30;;;;;;;3.45;0.47;;;17.80;99.90;;;;;;5033921;28;20107;-66
2023/08/01 01:39:56;;;;;;;5.35;0.40;;;17.80;99.90;;;;;;5036605;28;20062;-65
2023/08/01 01:42:21;;;;;;;2.25;0.40;;;17.80;99.90;;;;;;5040299;28;20033;-65
2023/08/01 01:44:47;;;;;;;1.23;0.40;;;17.80;99.90;;;;;;5039707;28;20035;-66
2023/08/01 01:47:12;;;;;;;1.98;0.38;;;17.80;99.90;;;;;;5035211;28;20026;-65
2023/08/01 01:49:38;;;;;;;3.08;0.63;;;17.80;99.90;;;;;;5053726;28;20257;-65
2023/08/01 01:52:04;;;;;;;1.92;0.40;;;17.80;99.90;;;;;;5034424;28;20060;-67
2023/08/01 01:54:29;;;;;;;0.30;0.30;;;17.80;99.90;;;;;;5043160;28;20028;-65
2023/08/01 01:56:55;;;;;;;2.80;0.60;;;17.80;99.90;;;;;;5035191;28;20451;-66
2023/08/01 01:59:20;;;;;;;3.03;0.60;;;17.80;99.90;;;;;;5043854;28;20568;-66
2023/08/01 02:01:46;;;;;;;0.60;0.40;;;17.80;99.90;;;;;;5038833;28;20530;-65
2023/08/01 02:04:11;;;;;;;1.75;0.38;;;17.80;99.90;;;;;;5039125;28;20033;-66
2023/08/01 02:06:37;;;;;;;2.30;0.43;;;17.80;99.90;;;;;;5036608;28;20478;-66
2023/08/01 02:09:04;;;;;;;1.17;0.43;;;17.90;99.90;;;;;;5039433;28;20033;-66
2023/08/01 02:11:30;;;;;;;0.68;0.40;;;17.80;99.90;;;;;;5042197;28;20501;-66
2023/08/01 02:13:55;;;;;;;0.50;0.45;;;17.80;99.90;;;;;;5041643;28;20170;-65
2023/08/01 02:16:21;;;;;;;2.35;0.50;;;17.80;99.90;;;;;;5038077;28;20034;-65
2023/08/01 02:18:46;;;;;;;0.60;0.47;;;17.80;99.90;;;;;;5041816;28;20040;-66
2023/08/01 02:21:12;;;;;;;1.83;1.08;;;17.80;99.90;;;;;;5042091;28;20088;-64
2023/08/01 02:23:37;;;;;;;3.85;0.93;;;17.80;99.90;;;;;;5041841;28;20032;-65
2023/08/01 02:26:03;;;;;;;2.92;0.93;;;17.70;99.90;;;;;;5039909;28;20025;-63
2023/08/01 02:28:29;;;;;;;1.40;0.90;;;17.60;99.90;;;;;;5040927;28;20094;-66
2023/08/01 02:30:54;;;;;;;2.50;0.75;;;17.60;99.90;;;;;;5039468;28;20810;-65
2023/08/01 02:33:20;;;;;;;1.55;0.82;;;17.60;99.90;;;;;;5033099;28;20026;-64
2023/08/01 02:35:48;;;;;;;0.50;0.50;;;17.50;99.90;;;;;;5042640;28;20025;-65
2023/08/01 02:38:14;;;;;;;2.90;0.70;;;17.50;99.90;;;;;;5039034;28;20396;-64
2023/08/01 02:40:39;;;;;;;1.58;0.82;;;17.30;99.90;;;;;;5039377;28;20024;-65
2023/08/01 02:43:05;;;;;;;1.75;0.93;;;17.30;99.90;;;;;;5035697;28;20032;-65
2023/08/01 02:45:31;;;;;;;0.90;0.85;;;17.30;99.90;;;;;;5045346;28;20029;-66
2023/08/01 02:47:56;;;;;;;4.63;1.30;;;17.30;99.90;;;;;;5037372;28;20095;-63
2023/08/01 02:50:22;;;;;;;2.97;1.30;;;17.20;99.90;;;;;;5034226;28;20087;-65
2023/08/01 02:52:47;;;;;;;3.53;1.20;;;17.20;99.90;;;;;;5035211;28;20037;-64
2023/08/01 02:55:13;;;;;;;1.83;1.20;;;17.00;99.90;;;;;;5034140;28;20481;-65
2023/08/01 02:57:38;;;;;;;2.50;1.50;;;17.00;99.90;;;;;;5036053;28;20541;-65
2023/08/01 03:00:05;;;;;;;2.83;1.42;;;17.00;99.90;;;;;;5032959;28;20055;-63
2023/08/01 03:02:31;;;;;;;2.10;1.45;;;16.90;99.90;;;;;;5032750;28;20408;-65
2023/08/01 03:04:57;;;;;;;4.63;1.63;;;16.90;99.90;;;;;;5037606;28;20493;-64
2023/08/01 03:07:22;;;;;;;6.05;1.52;;;16.80;99.90;;;;;;5033832;28;20100;-65
2023/08/01 03:09:48;;;;;;;2.00;1.33;;;16.80;99.90;;;;;;5034449;28;20021;-64
2023/08/01 03:12:14;;;;;;;2.15;1.30;;;16.70;99.90;;;;;;5036632;28;20024;-64
2023/08/01 03:14:41;;;;;;;2.13;1.40;;;16.70;99.90;;;;;;5040280;28;20401;-64
2023/08/01 03:17:08;;;;;;;3.65;1.20;;;16.70;99.90;;;;;;5038773;28;20029;-63
2023/08/01 03:19:33;;;;;;;3.28;1.30;;;16.60;99.90;;;;;;5038604;28;20018;-65
2023/08/01 03:22:00;;;;;;;3.35;1.13;;;16.60;99.90;;;;;;5037938;28;20423;-63
2023/08/01 03:24:25;;;;;;;2.58;1.45;;;16.60;99.90;;;;;;5045654;28;20021;-63
2023/08/01 03:26:51;;;;;;;2.70;1.50;;;16.50;99.90;;;;;;5042260;28;20021;-65
2023/08/01 03:29:16;;;;;;;3.55;1.70;;;16.60;99.90;;;;;;5041448;28;20428;-64
2023/08/01 03:31:42;;;;;;;2.83;1.90;;;16.50;99.90;;;;;;5042148;28;20396;-64
2023/08/01 03:34:08;;;;;;;2.95;1.98;;;16.50;99.90;;;;;;5041566;28;20492;-65
2023/08/01 03:36:34;;;;;;;6.63;2.10;;;16.50;99.90;;;;;;5041835;28;20500;-64
2023/08/01 03:39:00;;;;;;;8.55;2.80;;;16.60;99.90;;;;;;5036770;28;20064;-64
2023/08/01 03:41:25;;;;;;;4.35;2.63;;;16.50;99.90;;;;;;5042751;28;20067;-65
2023/08/01 03:43:51;;;;;;;3.80;2.38;;;16.50;99.90;;;;;;5038671;28;20056;-65
2023/08/01 03:46:16;;;;;;;4.07;2.67;;;16.50;99.90;;;;;;5043855;28;20060;-63
2023/08/01 03:48:43;;;;;;;4.32;2.53;;;16.40;99.90;;;;;;5041309;28;20025;-65
2023/08/01 03:51:08;;;;;;;5.78;2.92;;;16.50;99.90;;;;;;5042463;28;20385;-63
2023/08/01 03:53:34;;;;;;;8.20;3.45;;;16.40;99.90;;;;;;5042704;28;20018;-65
2023/08/01 03:56:00;;;;;;;8.90;3.90;;;16.40;99.90;;;;;;5041643;28;20036;-64
2023/08/01 03:58:25;;;;;;;9.45;4.22;;;16.40;99.90;;;;;;5035576;28;20026;-65
2023/08/01 04:00:51;;;;;;;8.75;3.28;;;16.40;99.90;;;;;;5044230;28;20048;-64
2023/08/01 04:03:16;;;;;;;8.55;4.22;;;16.40;99.90;;;;;;5038023;28;20699;-63
2023/08/01 04:05:42;;;;;;;11.25;4.50;;;16.40;99.90;;;;;;5040481;28;20033;-63
2023/08/01 04:08:08;;;;;;;7.63;4.22;;;16.30;99.90;;;;;;5042668;28;20022;-65
2023/08/01 04:10:33;;;;;;;9.77;5.22;;;16.40;99.90;;;;;;5041000;28;20514;-62
2023/08/01 04:12:59;;;;;;;8.18;4.82;;;16.30;99.90;;;;;;5038471;28;20047;-64
2023/08/01 04:15:24;;;;;;;9.05;5.18;;;16.40;99.90;;;;;;5046964;28;20029;-65
2023/08/01 04:17:50;;;;;;;10.60;4.65;;;16.30;99.90;;;;;;5043677;28;20022;-65
2023/08/01 04:20:15;;;;;;;8.88;4.90;;;16.30;99.90;;;;;;5045069;28;20087;-65
2023/08/01 04:22:41;;;;;;;12.05;5.68;;;16.30;99.90;;;;;;5035196;28;20026;-65
2023/08/01 04:25:07;;;;;;;16.05;7.25;;;16.20;99.90;;;;;;5041747;28;20025;-64
2023/08/01 04:27:33;;;;;;;10.95;5.68;;;16.20;99.90;;;;;;5041603;28;20113;-65
2023/08/01 04:29:58;;;;;;;14.25;5.72;;;16.10;99.90;;;;;;5040263;28;20101;-65
2023/08/01 04:32:24;;;;;;;12.45;5.80;;;16.10;99.90;;;;;;5036132;28;20021;-64
2023/08/01 04:34:49;;;;;;;14.73;6.28;;;16.10;99.90;;;;;;5040034;28;20017;-63
2023/08/01 04:37:15;;;;;;;15.88;6.85;;;16.10;99.90;;;;;;5040352;28;20112;-64
2023/08/01 04:39:40;;;;;;;17.20;7.30;;;16.10;99.90;;;;;;5046186;28;20024;-64
2023/08/01 04:42:06;;;;;;;15.82;6.90;;;16.10;99.90;;;;;;5038228;28;20040;-65
2023/08/01 04:44:32;;;;;;;12.52;6.35;;;16.00;99.90;;;;;;5039966;28;20148;-63
2023/08/01 04:46:58;;;;;;;10.10;5.65;;;16.00;99.90;;;;;;5037746;28;20113;-63
2023/08/01 04:49:24;;;;;;;15.10;6.35;;;16.00;99.90;;;;;;5038829;28;20056;-62
2023/08/01 04:51:50;;;;;;;20.88;6.70;;;16.00;99.90;;;;;;5040884;28;20017;-63
2023/08/01 04:54:15;;;;;;;10.75;5.90;;;16.00;99.90;;;;;;5041822;28;20038;-64
2023/08/01 04:56:41;;;;;;;18.67;6.68;;;16.00;99.90;;;;;;5040518;28;20104;-64
2023/08/01 04:59:07;;;;;;;11.63;6.70;;;16.00;99.90;;;;;;5033808;28;20071;-65
2023/08/01 05:01:33;;;;;;;12.43;6.10;;;16.00;99.90;;;;;;5030083;28;20488;-63
2023/08/01 05:03:58;;;;;;;16.52;7.35;;;16.00;99.90;;;;;;5032100;28;20021;-64
2023/08/01 05:06:24;;;;;;;15.90;7.40;;;16.00;99.90;;;;;;5036226;28;20029;-65
2023/08/01 05:08:49;;;;;;;18.45;7.00;;;16.00;99.90;;;;;;5038655;28;20029;-66
2023/08/01 05:11:15;;;;;;;15.68;7.03;;;16.00;99.90;;;;;;5033280;28;20041;-64
2023/08/01 05:13:40;;;;;;;15.70;8.15;;;16.00;99.90;;;;;;5034741;28;20055;-65
2023/08/01 05:16:06;;;;;;;33.15;9.40;;;16.00;99.90;;;;;;5034272;28;20030;-64
2023/08/01 05:18:31;;;;;;;17.88;6.55;;;16.00;99.90;;;;;;5031269;28;20026;-65
2023/08/01 05:20:57;;;;;;;17.20;7.10;;;16.00;99.90;;;;;;5037714;28;20021;-65
2023/08/01 05:23:22;;;;;;;16.83;7.00;;;16.00;99.90;;;;;;5035758;28;20485;-65
2023/08/01 05:25:48;;;;;;;14.70;7.18;;;16.00;99.90;;;;;;5028851;28;20029;-65
2023/08/01 05:28:14;;;;;;;11.85;6.43;;;16.00;99.90;;;;;;5043196;28;20025;-65
2023/08/01 05:30:40;;;;;;;12.88;6.60;;;16.00;99.90;;;;;;5034696;28;20533;-66
2023/08/01 05:33:06;;;;;;;13.82;6.65;;;16.00;99.90;;;;;;5032846;28;20072;-65
2023/08/01 05:35:31;;;;;;;14.98;6.00;;;15.90;99.90;;;;;;5037199;28;20045;-65
2023/08/01 05:37:57;;;;;;;17.63;6.03;;;15.90;99.90;;;;;;5034509;28;20033;-66
2023/08/01 05:40:22;;;;;;;11.93;6.10;;;15.90;99.90;;;;;;5041422;28;20029;-65
2023/08/01 05:42:48;;;;;;;13.60;6.07;;;15.90;99.90;;;;;;5038614;28;20063;-65
2023/08/01 05:45:13;;;;;;;16.42;6.72;;;15.90;99.90;;;;;;5033435;28;20037;-64
2023/08/01 05:47:40;;;;;;;15.23;6.97;;;15.90;99.90;;;;;;5036830;28;20056;-66
2023/08/01 05:50:07;;;;;;;17.63;6.88;;;15.90;99.90;;;;;;5033586;28;20021;-64
2023/08/01 05:52:33;;;;;;;15.13;6.60;;;16.00;99.90;;;;;;5034539;28;20552;-64
2023/08/01 05:54:59;;;;;;;15.52;6.15;;;15.90;99.90;;;;;;5037737;28;20025;-65
2023/08/01 05:57:25;;;;;;;13.45;6.03;;;16.00;99.90;;;;;;5035260;28;20159;-65
2023/08/01 05:59:50;;;;;;;11.77;5.78;;;16.00;99.90;;;;;;5035103;28;20116;-65
2023/08/01 06:02:16;;;;;;;18.15;6.63;;;16.10;99.90;;;;;;5034155;28;20033;-65
2023/08/01 06:04:42;;;;;;;15.50;6.88;;;16.20;99.90;;;;;;5037303;28;20021;-65
2023/08/01 06:07:07;;;;;;;14.45;6.80;;;16.20;99.90;;;;;;5031378;28;20025;-65
2023/08/01 06:09:33;;;;;;;13.40;6.43;;;16.30;99.90;;;;;;5037971;28;20075;-60
2023/08/01 06:11:58;;;;;;;15.40;6.47;;;16.30;99.90;;;;;;5035363;28;20404;-64
2023/08/01 06:14:24;;;;;;;14.80;6.00;;;16.30;99.90;;;;;;5039354;28;20523;-65
2023/08/01 06:16:50;;;;;;;11.35;5.93;;;16.30;99.90;;;;;;5033860;28;20033;-65
2023/08/01 06:19:15;;;;;;;13.90;6.30;;;16.30;99.90;;;;;;5040232;28;20022;-65
2023/08/01 06:21:41;;;;;;;19.98;6.95;;;16.30;99.90;;;;;;5033897;28;20052;-65
2023/08/01 06:24:08;;;;;;;14.18;6.55;;;16.30;99.90;;;;;;5030419;28;20517;-65
2023/08/01 06:26:34;;;;;;;15.57;6.47;;;16.30;99.90;;;;;;5032970;28;20029;-65
2023/08/01 06:28:59;;;;;;;10.05;6.22;;;16.40;99.90;;;;;;5036561;28;20082;-66
2023/08/01 06:31:25;;;;;;;18.00;6.80;;;16.40;99.90;;;;;;5035929;28;20072;-65
2023/08/01 06:33:50;;;;;;;21.67;7.03;;;16.40;99.90;;;;;;5039119;28;20515;-66
2023/08/01 06:36:17;;;;;;;12.88;6.72;;;16.40;99.90;;;;;;5034007;28;20520;-65
2023/08/01 06:38:43;;;;;;;15.60;5.93;;;16.40;99.90;;;;;;5036204;28;20021;-65
2023/08/01 06:41:08;;;;;;;17.40;7.72;;;16.50;99.90;;;;;;5032894;28;20030;-66
2023/08/01 06:43:34;;;;;;;18.83;7.13;;;16.50;99.90;;;;;;5040243;28;20031;-65
2023/08/01 06:45:59;;;;;;;10.15;6.25;;;16.50;99.90;;;;;;5031978;28;20072;-64
2023/08/01 06:48:25;;;;;;;18.77;5.78;;;16.60;99.90;;;;;;5031241;28;20029;-65
2023/08/01 06:50:51;;;;;;;17.08;6.00;;;16.60;99.90;;;;;;5035891;28;20028;-64
2023/08/01 06:53:16;;;;;;;16.10;6.05;;;16.70;99.90;;;;;;5034973;28;20033;-62
2023/08/01 06:55:42;;;;;;;13.02;6.32;;;16.80;99.90;;;;;;5035586;28;20074;-63
2023/08/01 06:58:08;;;;;;;20.90;6.70;;;16.90;99.90;;;;;;5044620;28;20018;-64
2023/08/01 07:00:33;;;;;;;14.25;6.40;;;16.90;99.90;;;;;;5042067;28;20155;-64
2023/08/01 07:02:59;;;;;;;12.52;6.03;;;16.90;99.90;;;;;;5034907;28;20028;-64
2023/08/01 07:05:24;;;;;;;14.98;5.68;;;16.90;99.90;;;;;;5035709;28;20038;-64
2023/08/01 07:07:50;;;;;;;16.85;6.13;;;16.80;99.90;;;;;;5040104;28;20029;-64
2023/08/01 07:10:15;;;;;;;11.27;5.90;;;16.90;99.90;;;;;;5042563;28;20760;-64
2023/08/01 07:12:41;;;;;;;11.82;6.32;;;16.80;99.90;;;;;;5038644;28;20104;-64
2023/08/01 07:15:07;;;;;;;10.35;5.82;;;16.80;99.90;;;;;;5039034;28;20117;-65
2023/08/01 07:17:33;;;;;;;18.50;5.25;;;16.90;99.90;;;;;;5034415;28;20030;-64
2023/08/01 07:19:58;;;;;;;13.88;7.47;;;17.00;99.90;;;;;;5033283;28;20029;-65
2023/08/01 07:22:24;;;;;;;19.38;6.40;;;17.00;99.90;;;;;;5040169;28;20017;-65
2023/08/01 07:24:54;;;;;;;15.57;6.93;;;17.10;99.90;;;;;;5035613;28;20025;-63
2023/08/01 07:27:19;;;;;;;14.18;6.30;;;17.10;99.90;;;;;;5036486;28;20027;-65
2023/08/01 07:29:45;;;;;;;11.30;6.40;;;17.20;99.90;;;;;;5034059;28;20022;-64
2023/08/01 07:32:10;;;;;;;17.52;6.72;;;17.20;99.90;;;;;;5034774;28;20037;-57
2023/08/01 07:34:36;;;;;;;11.88;5.97;;;17.20;99.90;;;;;;5035466;28;20397;-65
2023/08/01 07:37:01;;;;;;;18.65;7.32;;;17.20;99.90;;;;;;5039530;28;20025;-65
2023/08/01 07:39:27;;;;;;;19.63;6.57;;;17.20;99.90;;;;;;5030726;28;20095;-64
2023/08/01 07:41:53;;;;;;;14.65;6.63;;;17.20;99.90;;;;;;5033884;28;20044;-65
2023/08/01 07:44:18;;;;;;;14.88;6.68;;;17.20;99.90;;;;;;5034119;28;20113;-64
2023/08/01 07:46:44;;;;;;;18.17;6.68;;;17.30;99.90;;;;;;5036872;28;20026;-65
2023/08/01 07:49:09;;;;;;;14.30;5.90;;;17.30;99.90;;;;;;5038053;28;20113;-64
2023/08/01 07:51:36;;;;;;;16.95;6.40;;;17.30;99.90;;;;;;5036502;28;20389;-64
2023/08/01 07:54:01;;;;;;;10.25;5.80;;;17.20;99.90;;;;;;5034324;28;20029;-64
2023/08/01 07:56:27;;;;;;;17.02;5.93;;;17.30;99.90;;;;;;5037230;28;20040;-63
2023/08/01 07:58:52;;;;;;;17.70;5.40;;;17.20;99.90;;;;;;5033933;28;20377;-65
2023/08/01 08:01:18;;;;;;;16.00;5.35;;;17.20;99.90;;;;;;5036091;28;20022;-63
2023/08/01 08:03:43;;;;;;;12.80;5.93;;;17.20;99.90;;;;;;5036489;28;20477;-64
2023/08/01 08:06:09;;;;;;;16.60;6.20;;;17.30;99.90;;;;;;5033323;28;20037;-64
2023/08/01 08:08:36;;;;;;;14.35;5.43;;;17.40;99.90;;;;;;5035108;28;20155;-65
2023/08/01 08:11:02;;;;;;;14.23;5.30;;;17.50;99.90;;;;;;5034823;28;20033;-64
2023/08/01 08:13:28;;;;;;;13.50;5.10;;;17.60;99.90;;;;;;5031600;28;20083;-61
2023/08/01 08:15:57;;;;;;;13.98;5.95;;;17.80;99.90;;;;;;5035096;28;20103;-62
2023/08/01 08:18:23;;;;;;;14.30;6.03;;;17.90;99.90;;;;;;5036725;28;20041;-64
2023/08/01 08:20:49;;;;;;;14.07;5.43;;;17.90;99.90;;;;;;5033157;28;20105;-62
2023/08/01 08:23:14;;;;;;;13.88;6.15;;;17.90;99.90;;;;;;5035499;28;20529;-63
2023/08/01 08:25:41;;;;;;;16.27;5.97;;;17.90;99.90;;;;;;5036474;28;20035;-64
2023/08/01 08:28:08;;;;;;;18.50;6.50;;;17.90;99.90;;;;;;5035272;28;20021;-63
2023/08/01 08:30:34;;;;;;;11.32;5.90;;;18.00;99.90;;;;;;5034287;28;20032;-63
2023/08/01 08:33:04;;;;;;;20.33;6.85;;;18.00;99.90;;;;;;5033795;28;20740;-64
2023/08/01 08:35:30;;;;;;;12.63;5.90;;;18.00;99.90;;;;;;5031800;28;20053;-63
2023/08/01 08:37:58;;;;;;;16.40;5.88;;;18.10;99.90;;;;;;5040982;28;20021;-63
2023/08/01 08:40:23;;;;;;;13.20;5.47;;;18.10;99.90;;;;;;5032187;28;20552;-63
2023/08/01 08:42:52;;;;;;;10.48;5.32;;;18.10;99.90;;;;;;5037137;28;20059;-64
2023/08/01 08:45:20;;;;;;;7.70;4.72;;;18.30;99.90;;;;;;5032996;28;20033;-63
2023/08/01 08:47:53;;;;;;;10.13;4.78;;;18.60;99.90;;;;;;5030655;28;20014;-64
2023/08/01 08:50:19;;;;;;;12.02;4.65;;;18.70;99.90;;;;;;5048400;28;20030;-64
2023/08/01 08:52:45;;;;;;;11.13;4.53;;;18.80;99.90;;;;;;5032791;28;20541;-62
2023/08/01 08:55:11;;;;;;;13.35;4.25;;;18.80;99.90;;;;;;5034776;28;20021;-64
2023/08/01 08:57:39;;;;;;;13.02;4.13;;;18.90;99.90;;;;;;5031680;28;20060;-62
2023/08/01 09:00:05;;;;;;;57.95;7.43;;;19.00;99.90;;;;;;5033071;28;20026;-63
2023/08/01 09:02:32;;;;;;;14.82;3.58;;;19.00;99.90;;;;;;5036382;28;20032;-64
2023/08/01 09:04:58;;;;;;;12.32;3.47;;;19.10;99.90;;;;;;5035532;28;20083;-64
2023/08/01 09:07:26;;;;;;;7.05;2.90;;;19.20;99.90;;;;;;5034940;28;20109;-63
2023/08/01 09:09:52;;;;;;;10.55;3.53;;;19.20;99.90;;;;;;5033003;28;20029;-62
2023/08/01 09:12:17;;;;;;;9.05;3.67;;;19.20;99.90;;;;;;5033338;28;20426;-64
2023/08/01 09:14:43;;;;;;;7.95;4.00;;;19.20;99.90;;;;;;5029112;28;20491;-63
2023/08/01 09:17:09;;;;;;;16.83;3.95;;;19.40;99.90;;;;;;5034607;28;20049;-65
2023/08/01 09:19:35;;;;;;;8.55;3.38;;;19.50;99.90;;;;;;5031673;28;20027;-64
2023/08/01 09:22:01;;;;;;;13.52;6.60;;;19.60;99.90;;;;;;5034575;28;20022;-62
2023/08/01 09:24:27;;;;;;;10.63;3.40;;;19.80;99.90;;;;;;5032433;28;20116;-63
2023/08/01 09:26:52;;;;;;;12.48;4.07;;;19.60;99.90;;;;;;5033467;28;20445;-63
2023/08/01 09:29:20;;;;;;;7.95;3.45;;;19.40;99.90;;;;;;5032983;28;20030;-64
2023/08/01 09:31:45;;;;;;;7.85;3.45;;;19.30;99.90;;;;;;5031022;28;20041;-64
2023/08/01 09:34:22;;;;;;;10.95;3.83;;;19.20;99.90;;;;;;5031896;28;20118;-63
2023/08/01 09:36:49;;;;;;;13.52;3.65;;;19.40;99.90;;;;;;5028798;28;20076;-64
2023/08/01 09:39:19;;;;;;;14.43;4.25;;;19.40;99.90;;;;;;5031275;28;20034;-63
2023/08/01 09:41:45;;;;;;;8.38;3.50;;;19.40;99.90;;;;;;5030074;28;20489;-63
2023/08/01 09:44:16;;;;;;;9.60;3.60;;;19.50;99.90;;;;;;5038267;28;20428;-63
2023/08/01 09:46:43;;;;;;;9.07;3.88;;;19.60;99.90;;;;;;5029892;28;20403;-62
2023/08/01 09:49:12;;;;;;;8.52;3.55;;;19.70;99.90;;;;;;5030576;28;20094;-65
2023/08/01 09:51:51;;;;;;;9.40;3.40;;;20.00;99.90;;;;;;5030438;28;20125;-61
2023/08/01 09:54:17;;;;;;;10.13;3.25;;;20.00;99.90;;;;;;5032289;28;20104;-64
2023/08/01 09:56:49;;;;;;;7.57;3.50;;;20.00;99.90;;;;;;5030799;28;20102;-62
2023/08/01 09:59:19;;;;;;;7.35;3.25;;;20.10;99.90;;;;;;5031131;28;20028;-65
2023/08/01 10:01:50;;;;;;;7.13;2.80;;;20.30;99.90;;;;;;5033712;28;20040;-63
2023/08/01 10:04:26;;;;;;;8.82;2.97;;;20.20;99.90;;;;;;5034364;28;20026;-62
2023/08/01 10:06:59;;;;;;;9.00;2.90;;;19.90;99.90;;;;;;5035079;28;20117;-62
2023/08/01 10:09:25;;;;;;;7.82;3.72;;;20.10;99.90;;;;;;5030580;28;20037;-63
2023/08/01 10:11:52;;;;;;;7.60;3.25;;;20.20;99.90;;;;;;5033420;28;20041;-62
2023/08/01 10:14:20;;;;;;;7.57;3.35;;;20.30;99.90;;;;;;5031194;28;20045;-63
2023/08/01 10:16:46;;;;;;;10.95;3.63;;;20.40;99.90;;;;;;5032297;28;20033;-63
2023/08/01 10:19:13;;;;;;;8.38;3.40;;;20.30;99.90;;;;;;5032129;28;20400;-63
2023/08/01 10:21:41;;;;;;;12.05;3.35;;;20.30;99.90;;;;;;5031373;28;20377;-62
2023/08/01 10:24:07;;;;;;;10.13;2.97;;;20.30;99.90;;;;;;5034459;28;20110;-64
2023/08/01 10:26:32;;;;;;;9.68;3.47;;;20.40;99.90;;;;;;5038969;28;20052;-63
2023/08/01 10:28:59;;;;;;;9.07;2.92;;;20.60;99.90;;;;;;5030028;28;20438;-63
2023/08/01 10:31:25;;;;;;;9.77;3.58;;;20.90;99.90;;;;;;5034268;28;20028;-62
2023/08/01 10:33:52;;;;;;;10.52;3.47;;;20.80;99.90;;;;;;5030391;28;20033;-61
2023/08/01 10:36:29;;;;;;;12.10;3.25;;;20.70;99.90;;;;;;5032429;28;20104;-63
2023/08/01 10:38:56;;;;;;;8.25;3.10;;;20.50;99.90;;;;;;5033759;28;20112;-62
2023/08/01 10:41:32;;;;;;;13.75;2.85;;;20.70;99.90;;;;;;5034586;28;20017;-62
2023/08/01 10:44:15;;;;;;;6.50;2.65;;;21.00;99.90;;;;;;5033809;28;20493;-60
2023/08/01 10:46:54;;;;;;;5.07;2.30;;;21.40;99.90;;;;;;5031861;28;20033;-62
2023/08/01 10:49:32;;;;;;;7.72;2.78;;;21.70;99.90;;;;;;5033664;28;20127;-63
2023/08/01 10:51:58;;;;;;;15.77;2.75;;;21.50;99.90;;;;;;5030653;28;20125;-62
2023/08/01 10:54:25;;;;;;;9.32;2.63;;;21.70;99.90;;;;;;5036484;28;20040;-62
2023/08/01 10:56:52;;;;;;;6.75;2.45;;;22.00;99.90;;;;;;5029758;28;20022;-63
2023/08/01 10:59:18;;;;;;;7.82;2.38;;;21.90;99.90;;;;;;5034257;28;20505;-63
2023/08/01 11:01:49;;;;;;;10.38;2.63;;;21.90;99.90;;;;;;5030511;28;20030;-62
2023/08/01 11:04:21;;;;;;;105.65;10.48;;;22.00;99.90;;;;;;5035076;28;20033;-59
2023/08/01 11:06:51;;;;;;;6.38;1.80;;;22.00;99.90;;;;;;5029020;28;20029;-61
2023/08/01 11:09:21;;;;;;;9.63;2.38;;;21.80;99.90;;;;;;5030790;28;20025;-62
2023/08/01 11:11:51;;;;;;;84.00;7.53;;;21.50;99.90;;;;;;5029197;28;20123;-60
2023/08/01 11:14:20;;;;;;;3.78;1.52;;;21.20;99.90;;;;;;5027897;28;20037;-64
2023/08/01 11:16:47;;;;;;;5.45;2.08;;;21.00;99.90;;;;;;5030548;28;20445;-60
2023/08/01 11:19:29;;;;;;;5.85;2.33;;;21.20;99.90;;;;;;5035550;28;20036;-63
2023/08/01 11:21:56;;;;;;;4.10;1.90;;;21.40;99.90;;;;;;5028451;28;20065;-62
2023/08/01 11:24:22;;;;;;;7.85;2.45;;;21.60;99.90;;;;;;5031978;28;20029;-63
2023/08/01 11:26:49;;;;;;;7.18;2.13;;;21.80;99.90;;;;;;5031758;28;20037;-63
2023/08/01 11:29:16;;;;;;;6.03;1.92;;;22.20;99.90;;;;;;5030336;28;20017;-64
2023/08/01 11:31:58;;;;;;;6.55;1.90;;;22.20;99.90;;;;;;5036606;28;20029;-63
2023/08/01 11:34:24;;;;;;;4.97;1.45;;;22.30;99.90;;;;;;5028072;28;20033;-63
2023/08/01 11:36:50;;;;;;;4.38;1.65;;;22.20;99.90;;;;;;5030266;28;20041;-63
2023/08/01 11:39:16;;;;;;;6.18;2.17;;;22.00;99.90;;;;;;5030166;28;20603;-62
2023/08/01 11:41:43;;;;;;;5.60;2.63;;;21.80;99.90;;;;;;5032515;28;20021;-64
2023/08/01 11:44:10;;;;;;;9.30;1.88;;;22.20;99.90;;;;;;5034951;28;20401;-62
2023/08/01 11:46:37;;;;;;;8.65;2.33;;;22.30;99.90;;;;;;5039817;28;20140;-63
2023/08/01 11:49:03;;;;;;;28.17;4.25;;;22.70;99.90;;;;;;5036703;28;20392;-61
2023/08/01 11:51:29;;;;;;;12.30;2.30;;;22.30;99.90;;;;;;5040728;28;20033;-62
2023/08/01 11:54:03;;;;;;;6.78;2.35;;;21.70;99.90;;;;;;5033067;28;20028;-63
2023/08/01 11:56:29;;;;;;;6.97;2.20;;;21.30;99.90;;;;;;5029574;28;20018;-59
2023/08/01 11:58:55;;;;;;;5.90;2.40;;;20.80;99.90;;;;;;5033949;28;20108;-62
2023/08/01 12:01:21;;;;;;;6.63;1.70;;;20.80;99.90;;;;;;5036884;28;20770;-61
2023/08/01 12:03:49;;;;;;;5.63;1.70;;;20.60;99.90;;;;;;5031881;28;20025;-61
2023/08/01 12:06:15;;;;;;;10.20;2.55;;;20.80;99.90;;;;;;5034534;28;20504;-60
2023/08/01 12:08:43;;;;;;;8.18;1.88;;;21.00;99.90;;;;;;5037726;28;20519;-61
2023/08/01 12:11:19;;;;;;;13.60;1.70;;;21.40;99.90;;;;;;5035887;28;20025;-60
2023/08/01 12:13:45;;;;;;;12.93;2.47;;;21.50;99.90;;;;;;5035796;28;20027;-58
2023/08/01 12:16:11;;;;;;;8.55;2.38;;;21.50;99.90;;;;;;5031900;28;20021;-62
2023/08/01 12:18:39;;;;;;;9.18;2.53;;;21.20;99.90;;;;;;5038353;28;20021;-59
2023/08/01 12:21:05;;;;;;;5.95;1.98;;;20.90;99.90;;;;;;5031907;28;20025;-63
2023/08/01 12:23:31;;;;;;;24.40;4.03;;;21.00;99.90;;;;;;5034122;28;20026;-63
2023/08/01 12:25:57;;;;;;;5.35;2.15;;;21.10;99.90;;;;;;5034995;28;20101;-63
2023/08/01 12:28:22;;;;;;;5.57;1.77;;;21.30;99.90;;;;;;5045192;28;20163;-63
2023/08/01 12:30:48;;;;;;;7.20;2.25;;;21.40;99.90;;;;;;5035618;28;20021;-62
2023/08/01 12:33:14;;;;;;;5.00;1.77;;;21.20;99.90;;;;;;5034430;28;20048;-63
2023/08/01 12:35:41;;;;;;;5.63;1.98;;;21.10;99.90;;;;;;5032371;28;20025;-63
2023/08/01 12:38:10;;;;;;;6.85;2.10;;;21.00;99.90;;;;;;5037506;28;20025;-62
2023/08/01 12:40:35;;;;;;;19.27;2.80;;;20.60;99.90;;;;;;5031973;28;20037;-64